sensor_id;sensor_type;location;lat;lon;timestamp;pressure;altitude;pressure_sealevel;temperature;humidity
54194;BME280;40102;50.906;6.972;2022-08-30T00:00:53;101251.69;;;22.28;45.11
54194;BME280;40102;50.906;6.972;2022-08-30T00:03:30;101259.84;;;22.38;44.67
54194;BME280;40102;50.906;6.972;2022-08-30T00:05:56;101258.25;;;22.45;44.78
54194;BME280;40102;50.906;6.972;2022-08-30T00:08:22;101251.06;;;22.44;44.01
54194;BME280;40102;50.906;6.972;2022-08-30T00:10:47;101254.91;;;22.51;44.06
54194;BME280;40102;50.906;6.972;2022-08-30T00:13:16;101257.47;;;22.62;43.84
54194;BME280;40102;50.906;6.972;2022-08-30T00:15:43;101255.75;;;22.61;43.73
54194;BME280;40102;50.906;6.972;2022-08-30T00:18:09;101261.75;;;22.65;43.58
54194;BME280;40102;50.906;6.972;2022-08-30T00:20:35;101260.03;;;22.63;43.75
54194;BME280;40102;50.906;6.972;2022-08-30T00:23:02;101249.44;;;22.60;43.92
54194;BME280;40102;50.906;6.972;2022-08-30T00:25:28;101258.16;;;22.64;43.81
54194;BME280;40102;50.906;6.972;2022-08-30T00:27:54;101258.00;;;22.66;43.63
54194;BME280;40102;50.906;6.972;2022-08-30T00:30:20;101261.59;;;22.66;44.10
54194;BME280;40102;50.906;6.972;2022-08-30T00:32:46;101258.31;;;22.62;43.95
54194;BME280;40102;50.906;6.972;2022-08-30T00:35:15;101261.34;;;22.59;43.86
54194;BME280;40102;50.906;6.972;2022-08-30T00:37:42;101269.78;;;22.66;44.09
54194;BME280;40102;50.906;6.972;2022-08-30T00:40:09;101257.59;;;22.60;44.13
54194;BME280;40102;50.906;6.972;2022-08-30T00:42:37;101259.47;;;22.60;44.18
54194;BME280;40102;50.906;6.972;2022-08-30T00:45:31;101267.06;;;22.66;44.41
54194;BME280;40102;50.906;6.972;2022-08-30T00:47:58;101262.59;;;22.65;44.15
54194;BME280;40102;50.906;6.972;2022-08-30T00:50:27;101252.59;;;22.56;44.16
54194;BME280;40102;50.906;6.972;2022-08-30T00:52:57;101258.75;;;22.58;44.46
54194;BME280;40102;50.906;6.972;2022-08-30T00:55:24;101266.78;;;22.59;44.40
54194;BME280;40102;50.906;6.972;2022-08-30T00:57:55;101270.53;;;22.58;44.21
54194;BME280;40102;50.906;6.972;2022-08-30T01:00:21;101254.78;;;22.52;44.51
54194;BME280;40102;50.906;6.972;2022-08-30T01:02:47;101253.91;;;22.52;44.34
54194;BME280;40102;50.906;6.972;2022-08-30T01:05:13;101265.69;;;22.52;44.69
54194;BME280;40102;50.906;6.972;2022-08-30T01:07:40;101263.25;;;22.49;44.41
54194;BME280;40102;50.906;6.972;2022-08-30T01:10:07;101266.13;;;22.48;44.56
54194;BME280;40102;50.906;6.972;2022-08-30T01:12:35;101271.47;;;22.40;45.74
54194;BME280;40102;50.906;6.972;2022-08-30T01:15:01;101268.06;;;22.18;45.95
54194;BME280;40102;50.906;6.972;2022-08-30T01:17:27;101263.06;;;22.14;46.12
54194;BME280;40102;50.906;6.972;2022-08-30T01:20:15;101282.97;;;22.24;45.81
54194;BME280;40102;50.906;6.972;2022-08-30T01:25:22;101271.22;;;22.23;45.81
54194;BME280;40102;50.906;6.972;2022-08-30T01:28:03;101278.94;;;22.28;45.73
54194;BME280;40102;50.906;6.972;2022-08-30T01:30:30;101290.97;;;22.35;45.69
54194;BME280;40102;50.906;6.972;2022-08-30T01:33:02;101290.84;;;22.37;45.69
54194;BME280;40102;50.906;6.972;2022-08-30T01:35:30;101270.63;;;22.29;45.58
54194;BME280;40102;50.906;6.972;2022-08-30T01:38:01;101275.94;;;22.31;45.91
54194;BME280;40102;50.906;6.972;2022-08-30T01:40:26;101278.50;;;22.33;46.23
54194;BME280;40102;50.906;6.972;2022-08-30T01:42:51;101271.06;;;22.25;46.14
54194;BME280;40102;50.906;6.972;2022-08-30T01:45:17;101272.22;;;22.22;46.40
54194;BME280;40102;50.906;6.972;2022-08-30T01:47:42;101275.50;;;22.26;46.21
54194;BME280;40102;50.906;6.972;2022-08-30T01:50:09;101273.09;;;22.23;46.41
54194;BME280;40102;50.906;6.972;2022-08-30T01:52:36;101267.94;;;22.20;46.49
54194;BME280;40102;50.906;6.972;2022-08-30T01:55:02;101286.97;;;22.29;46.43
54194;BME280;40102;50.906;6.972;2022-08-30T01:57:29;101275.81;;;22.23;46.85
54194;BME280;40102;50.906;6.972;2022-08-30T01:59:54;101280.66;;;22.29;46.74
54194;BME280;40102;50.906;6.972;2022-08-30T02:02:23;101283.25;;;22.30;46.70
54194;BME280;40102;50.906;6.972;2022-08-30T02:04:50;101286.41;;;22.26;46.77
54194;BME280;40102;50.906;6.972;2022-08-30T02:07:17;101284.56;;;22.26;46.32
54194;BME280;40102;50.906;6.972;2022-08-30T02:09:42;101293.28;;;22.30;46.36
54194;BME280;40102;50.906;6.972;2022-08-30T02:12:08;101277.53;;;22.24;46.50
54194;BME280;40102;50.906;6.972;2022-08-30T02:14:34;101267.63;;;22.23;46.25
54194;BME280;40102;50.906;6.972;2022-08-30T02:17:01;101277.81;;;22.21;46.09
54194;BME280;40102;50.906;6.972;2022-08-30T02:19:27;101281.25;;;22.23;46.09
54194;BME280;40102;50.906;6.972;2022-08-30T02:21:53;101275.09;;;22.21;46.21
54194;BME280;40102;50.906;6.972;2022-08-30T02:24:18;101286.56;;;22.24;46.27
54194;BME280;40102;50.906;6.972;2022-08-30T02:26:44;101279.97;;;22.27;45.92
54194;BME280;40102;50.906;6.972;2022-08-30T02:29:09;101276.66;;;22.23;45.86
54194;BME280;40102;50.906;6.972;2022-08-30T02:31:34;101265.91;;;22.22;45.57
54194;BME280;40102;50.906;6.972;2022-08-30T02:34:00;101273.66;;;22.26;45.83
54194;BME280;40102;50.906;6.972;2022-08-30T02:36:26;101269.34;;;22.24;45.73
54194;BME280;40102;50.906;6.972;2022-08-30T02:38:52;101266.63;;;22.24;45.72
54194;BME280;40102;50.906;6.972;2022-08-30T02:41:18;101275.50;;;22.26;45.36
54194;BME280;40102;50.906;6.972;2022-08-30T02:43:44;101266.94;;;22.21;45.08
54194;BME280;40102;50.906;6.972;2022-08-30T02:46:09;101257.78;;;22.12;45.11
54194;BME280;40102;50.906;6.972;2022-08-30T02:48:35;101253.63;;;22.08;45.44
54194;BME280;40102;50.906;6.972;2022-08-30T02:51:06;101263.50;;;22.09;46.03
54194;BME280;40102;50.906;6.972;2022-08-30T02:53:32;101250.31;;;21.95;45.98
54194;BME280;40102;50.906;6.972;2022-08-30T02:55:57;101248.88;;;21.91;46.02
54194;BME280;40102;50.906;6.972;2022-08-30T02:58:23;101257.63;;;21.94;45.88
54194;BME280;40102;50.906;6.972;2022-08-30T03:00:48;101253.34;;;21.92;46.16
54194;BME280;40102;50.906;6.972;2022-08-30T03:03:14;101255.63;;;21.87;45.97
54194;BME280;40102;50.906;6.972;2022-08-30T03:05:39;101258.22;;;21.88;46.41
54194;BME280;40102;50.906;6.972;2022-08-30T03:08:05;101249.47;;;21.85;46.29
54194;BME280;40102;50.906;6.972;2022-08-30T03:10:31;101250.03;;;21.88;46.55
54194;BME280;40102;50.906;6.972;2022-08-30T03:12:56;101248.44;;;21.95;46.10
54194;BME280;40102;50.906;6.972;2022-08-30T03:15:22;101261.63;;;22.00;46.44
54194;BME280;40102;50.906;6.972;2022-08-30T03:17:52;101252.75;;;21.98;46.32
54194;BME280;40102;50.906;6.972;2022-08-30T03:20:19;101259.50;;;21.94;46.69
54194;BME280;40102;50.906;6.972;2022-08-30T03:22:45;101259.94;;;21.89;46.73
54194;BME280;40102;50.906;6.972;2022-08-30T03:25:11;101260.50;;;21.93;46.87
54194;BME280;40102;50.906;6.972;2022-08-30T03:27:36;101250.91;;;21.89;46.71
54194;BME280;40102;50.906;6.972;2022-08-30T03:30:03;101257.06;;;21.91;46.66
54194;BME280;40102;50.906;6.972;2022-08-30T03:32:29;101253.91;;;21.86;46.39
54194;BME280;40102;50.906;6.972;2022-08-30T03:34:54;101258.34;;;21.87;46.74
54194;BME280;40102;50.906;6.972;2022-08-30T03:37:20;101255.78;;;21.85;46.84
54194;BME280;40102;50.906;6.972;2022-08-30T03:39:45;101256.22;;;21.81;46.95
54194;BME280;40102;50.906;6.972;2022-08-30T03:42:11;101254.50;;;21.80;46.95
54194;BME280;40102;50.906;6.972;2022-08-30T03:44:37;101262.66;;;21.80;47.09
54194;BME280;40102;50.906;6.972;2022-08-30T03:47:03;101258.06;;;21.80;46.62
54194;BME280;40102;50.906;6.972;2022-08-30T03:49:29;101252.34;;;21.74;46.83
54194;BME280;40102;50.906;6.972;2022-08-30T03:51:54;101240.88;;;21.70;47.14
54194;BME280;40102;50.906;6.972;2022-08-30T03:54:20;101246.91;;;21.74;46.96
54194;BME280;40102;50.906;6.972;2022-08-30T03:56:45;101235.59;;;21.69;46.95
54194;BME280;40102;50.906;6.972;2022-08-30T03:59:11;101228.84;;;21.63;47.14
54194;BME280;40102;50.906;6.972;2022-08-30T04:01:36;101247.47;;;21.67;47.42
54194;BME280;40102;50.906;6.972;2022-08-30T04:04:02;101249.63;;;21.64;47.46
54194;BME280;40102;50.906;6.972;2022-08-30T04:06:27;101247.06;;;21.62;47.49
54194;BME280;40102;50.906;6.972;2022-08-30T04:08:53;101259.53;;;21.65;47.63
54194;BME280;40102;50.906;6.972;2022-08-30T04:11:18;101250.78;;;21.61;47.56
54194;BME280;40102;50.906;6.972;2022-08-30T04:13:44;101260.09;;;21.59;47.67
54194;BME280;40102;50.906;6.972;2022-08-30T04:16:11;101247.34;;;21.59;47.77
54194;BME280;40102;50.906;6.972;2022-08-30T04:18:36;101257.50;;;21.67;47.40
54194;BME280;40102;50.906;6.972;2022-08-30T04:21:02;101243.47;;;21.52;47.41
54194;BME280;40102;50.906;6.972;2022-08-30T04:23:28;101250.34;;;21.56;47.61
54194;BME280;40102;50.906;6.972;2022-08-30T04:25:54;101256.38;;;21.60;47.42
54194;BME280;40102;50.906;6.972;2022-08-30T04:28:20;101253.78;;;21.58;47.54
54194;BME280;40102;50.906;6.972;2022-08-30T04:30:45;101256.38;;;21.60;47.88
54194;BME280;40102;50.906;6.972;2022-08-30T04:33:12;101244.06;;;21.56;47.96
54194;BME280;40102;50.906;6.972;2022-08-30T04:35:42;101241.31;;;21.56;47.91
54194;BME280;40102;50.906;6.972;2022-08-30T04:38:08;101258.66;;;21.64;47.32
54194;BME280;40102;50.906;6.972;2022-08-30T04:40:34;101274.00;;;21.65;47.85
54194;BME280;40102;50.906;6.972;2022-08-30T04:43:00;101260.09;;;21.59;47.60
54194;BME280;40102;50.906;6.972;2022-08-30T04:45:25;101260.38;;;21.56;47.85
54194;BME280;40102;50.906;6.972;2022-08-30T04:47:50;101257.94;;;21.53;47.51
54194;BME280;40102;50.906;6.972;2022-08-30T04:50:17;101263.53;;;21.51;47.60
54194;BME280;40102;50.906;6.972;2022-08-30T04:52:43;101282.00;;;21.57;47.85
54194;BME280;40102;50.906;6.972;2022-08-30T04:55:10;101283.00;;;21.56;48.17
54194;BME280;40102;50.906;6.972;2022-08-30T04:57:37;101288.47;;;21.56;48.14
54194;BME280;40102;50.906;6.972;2022-08-30T05:00:08;101276.56;;;21.48;48.39
54194;BME280;40102;50.906;6.972;2022-08-30T05:02:35;101284.44;;;21.51;48.06
54194;BME280;40102;50.906;6.972;2022-08-30T05:05:01;101281.56;;;21.43;48.37
54194;BME280;40102;50.906;6.972;2022-08-30T05:07:45;101282.28;;;21.45;48.33
54194;BME280;40102;50.906;6.972;2022-08-30T05:10:11;101283.44;;;21.42;48.46
54194;BME280;40102;50.906;6.972;2022-08-30T05:12:36;101279.84;;;21.42;48.79
54194;BME280;40102;50.906;6.972;2022-08-30T05:15:03;101282.16;;;21.46;48.86
54194;BME280;40102;50.906;6.972;2022-08-30T05:17:28;101291.03;;;21.48;48.54
54194;BME280;40102;50.906;6.972;2022-08-30T05:19:54;101301.63;;;21.51;48.54
54194;BME280;40102;50.906;6.972;2022-08-30T05:22:19;101288.75;;;21.53;48.88
54194;BME280;40102;50.906;6.972;2022-08-30T05:24:44;101288.03;;;21.51;48.84
54194;BME280;40102;50.906;6.972;2022-08-30T05:27:10;101284.00;;;21.55;48.69
54194;BME280;40102;50.906;6.972;2022-08-30T05:29:35;101292.63;;;21.60;48.79
54194;BME280;40102;50.906;6.972;2022-08-30T05:32:01;101297.06;;;21.61;48.54
54194;BME280;40102;50.906;6.972;2022-08-30T05:34:28;101294.03;;;21.64;48.27
54194;BME280;40102;50.906;6.972;2022-08-30T05:36:54;101298.06;;;21.70;48.58
54194;BME280;40102;50.906;6.972;2022-08-30T05:39:19;101288.31;;;21.67;48.46
54194;BME280;40102;50.906;6.972;2022-08-30T05:41:45;101288.19;;;21.69;48.40
54194;BME280;40102;50.906;6.972;2022-08-30T05:44:10;101297.19;;;21.70;48.32
54194;BME280;40102;50.906;6.972;2022-08-30T05:46:37;101295.06;;;21.63;48.63
54194;BME280;40102;50.906;6.972;2022-08-30T05:49:06;101308.66;;;21.63;48.77
54194;BME280;40102;50.906;6.972;2022-08-30T05:51:34;101312.66;;;21.59;49.13
54194;BME280;40102;50.906;6.972;2022-08-30T05:54:00;101303.94;;;21.56;48.97
54194;BME280;40102;50.906;6.972;2022-08-30T05:56:30;101305.38;;;21.60;48.76
54194;BME280;40102;50.906;6.972;2022-08-30T05:58:55;101316.09;;;21.61;49.17
54194;BME280;40102;50.906;6.972;2022-08-30T06:01:25;101316.25;;;21.60;49.05
54194;BME280;40102;50.906;6.972;2022-08-30T06:03:52;101314.69;;;21.57;48.96
54194;BME280;40102;50.906;6.972;2022-08-30T06:06:17;101317.41;;;21.57;49.38
54194;BME280;40102;50.906;6.972;2022-08-30T06:08:43;101318.97;;;21.60;49.29
54194;BME280;40102;50.906;6.972;2022-08-30T06:11:13;101310.53;;;21.63;49.65
54194;BME280;40102;50.906;6.972;2022-08-30T06:13:40;101309.09;;;21.59;49.39
54194;BME280;40102;50.906;6.972;2022-08-30T06:16:06;101310.38;;;21.64;49.50
54194;BME280;40102;50.906;6.972;2022-08-30T06:18:31;101309.22;;;21.57;49.33
54194;BME280;40102;50.906;6.972;2022-08-30T06:20:57;101295.75;;;21.46;49.41
54194;BME280;40102;50.906;6.972;2022-08-30T06:23:23;101292.44;;;21.33;49.89
54194;BME280;40102;50.906;6.972;2022-08-30T06:25:48;101299.31;;;21.27;49.78
54194;BME280;40102;50.906;6.972;2022-08-30T06:28:14;101293.97;;;21.16;49.87
54194;BME280;40102;50.906;6.972;2022-08-30T06:30:41;101291.38;;;21.15;50.18
54194;BME280;40102;50.906;6.972;2022-08-30T06:33:27;101274.47;;;21.11;50.16
54194;BME280;40102;50.906;6.972;2022-08-30T06:35:52;101289.09;;;21.20;49.70
54194;BME280;40102;50.906;6.972;2022-08-30T06:38:17;101293.22;;;21.14;50.04
54194;BME280;40102;50.906;6.972;2022-08-30T06:40:43;101297.69;;;21.15;50.01
54194;BME280;40102;50.906;6.972;2022-08-30T06:43:08;101295.41;;;21.20;50.19
54194;BME280;40102;50.906;6.972;2022-08-30T06:45:34;101309.06;;;21.30;49.90
54194;BME280;40102;50.906;6.972;2022-08-30T06:48:01;101304.63;;;21.39;49.94
54194;BME280;40102;50.906;6.972;2022-08-30T06:50:26;101310.94;;;21.49;49.41
54194;BME280;40102;50.906;6.972;2022-08-30T06:52:52;101302.63;;;21.60;49.37
54194;BME280;40102;50.906;6.972;2022-08-30T06:55:18;101306.22;;;21.70;48.79
54194;BME280;40102;50.906;6.972;2022-08-30T06:57:44;101306.09;;;21.72;49.45
54194;BME280;40102;50.906;6.972;2022-08-30T07:00:13;101316.13;;;21.71;49.53
54194;BME280;40102;50.906;6.972;2022-08-30T07:02:39;101308.81;;;21.72;49.58
54194;BME280;40102;50.906;6.972;2022-08-30T07:05:05;101310.66;;;21.71;49.40
54194;BME280;40102;50.906;6.972;2022-08-30T07:07:34;101306.38;;;21.69;49.32
54194;BME280;40102;50.906;6.972;2022-08-30T07:10:03;101313.97;;;21.75;49.37
54194;BME280;40102;50.906;6.972;2022-08-30T07:12:29;101309.38;;;21.75;48.73
54194;BME280;40102;50.906;6.972;2022-08-30T07:14:54;101307.66;;;21.74;49.10
54194;BME280;40102;50.906;6.972;2022-08-30T07:17:19;101312.69;;;21.79;48.75
54194;BME280;40102;50.906;6.972;2022-08-30T07:20:04;101321.69;;;21.79;48.80
54194;BME280;40102;50.906;6.972;2022-08-30T07:22:31;101312.69;;;21.79;48.92
54194;BME280;40102;50.906;6.972;2022-08-30T07:24:57;101314.09;;;21.73;49.05
54194;BME280;40102;50.906;6.972;2022-08-30T07:27:23;101320.41;;;21.64;49.00
54194;BME280;40102;50.906;6.972;2022-08-30T07:29:51;101328.16;;;21.69;49.07
54194;BME280;40102;50.906;6.972;2022-08-30T07:32:16;101318.41;;;21.76;49.02
54194;BME280;40102;50.906;6.972;2022-08-30T07:34:42;101319.41;;;21.84;48.44
54194;BME280;40102;50.906;6.972;2022-08-30T07:37:07;101321.84;;;21.87;48.71
54194;BME280;40102;50.906;6.972;2022-08-30T07:39:32;101331.31;;;21.93;48.38
54194;BME280;40102;50.906;6.972;2022-08-30T07:41:58;101331.59;;;21.99;48.39
54194;BME280;40102;50.906;6.972;2022-08-30T07:44:23;101328.59;;;22.03;48.54
54194;BME280;40102;50.906;6.972;2022-08-30T07:46:49;101323.16;;;22.03;48.34
54194;BME280;40102;50.906;6.972;2022-08-30T07:49:15;101317.97;;;21.99;48.41
54194;BME280;40102;50.906;6.972;2022-08-30T07:51:41;101311.09;;;21.95;48.86
54194;BME280;40102;50.906;6.972;2022-08-30T07:54:06;101313.09;;;21.84;48.86
54194;BME280;40102;50.906;6.972;2022-08-30T07:56:32;101315.13;;;21.82;48.96
54194;BME280;40102;50.906;6.972;2022-08-30T07:58:57;101324.28;;;21.81;49.32
54194;BME280;40102;50.906;6.972;2022-08-30T08:01:23;101329.59;;;21.82;49.13
54194;BME280;40102;50.906;6.972;2022-08-30T08:03:49;101335.03;;;21.82;49.14
54194;BME280;40102;50.906;6.972;2022-08-30T08:06:17;101327.16;;;21.79;49.47
54194;BME280;40102;50.906;6.972;2022-08-30T08:08:43;101319.56;;;21.83;48.94
54194;BME280;40102;50.906;6.972;2022-08-30T08:11:13;101332.72;;;21.97;48.83
54194;BME280;40102;50.906;6.972;2022-08-30T08:13:40;101328.00;;;21.99;48.88
54194;BME280;40102;50.906;6.972;2022-08-30T08:16:06;101328.72;;;22.01;49.06
54194;BME280;40102;50.906;6.972;2022-08-30T08:18:32;101335.47;;;21.97;48.99
54194;BME280;40102;50.906;6.972;2022-08-30T08:20:59;101331.03;;;21.96;49.23
54194;BME280;40102;50.906;6.972;2022-08-30T08:23:24;101321.69;;;21.89;49.14
54194;BME280;40102;50.906;6.972;2022-08-30T08:25:50;101331.34;;;22.03;48.61
54194;BME280;40102;50.906;6.972;2022-08-30T08:28:15;101330.19;;;22.05;48.72
54194;BME280;40102;50.906;6.972;2022-08-30T08:30:41;101322.72;;;22.07;48.80
54194;BME280;40102;50.906;6.972;2022-08-30T08:33:06;101330.47;;;22.12;49.06
54194;BME280;40102;50.906;6.972;2022-08-30T08:35:32;101331.75;;;22.17;48.59
54194;BME280;40102;50.906;6.972;2022-08-30T08:37:58;101323.28;;;22.20;48.19
54194;BME280;40102;50.906;6.972;2022-08-30T08:40:24;101323.56;;;22.27;48.14
54194;BME280;40102;50.906;6.972;2022-08-30T08:42:57;101331.16;;;22.33;48.24
54194;BME280;40102;50.906;6.972;2022-08-30T08:48:51;101319.81;;;22.38;47.80
54194;BME280;40102;50.906;6.972;2022-08-30T08:50:57;101314.34;;;22.38;47.81
54194;BME280;40102;50.906;6.972;2022-08-30T08:53:47;101305.88;;;22.41;47.52
54194;BME280;40102;50.906;6.972;2022-08-30T08:56:16;101316.34;;;22.45;47.25
54194;BME280;40102;50.906;6.972;2022-08-30T08:58:43;101324.63;;;22.53;47.20
54194;BME280;40102;50.906;6.972;2022-08-30T09:01:12;101309.84;;;22.56;46.94
54194;BME280;40102;50.906;6.972;2022-08-30T09:03:38;101303.38;;;22.57;46.71
54194;BME280;40102;50.906;6.972;2022-08-30T09:08:49;101308.53;;;22.60;46.04
54194;BME280;40102;50.906;6.972;2022-08-30T09:11:21;101304.50;;;22.64;46.31
54194;BME280;40102;50.906;6.972;2022-08-30T09:13:47;101298.75;;;22.67;45.88
54194;BME280;40102;50.906;6.972;2022-08-30T09:17:07;101304.47;;;22.74;46.16
54194;BME280;40102;50.906;6.972;2022-08-30T09:22:34;101299.25;;;22.90;45.63
54194;BME280;40102;50.906;6.972;2022-08-30T09:27:43;101292.13;;;23.07;45.66
54194;BME280;40102;50.906;6.972;2022-08-30T09:30:17;101292.78;;;23.18;45.54
54194;BME280;40102;50.906;6.972;2022-08-30T09:32:58;101281.72;;;23.20;44.83
54194;BME280;40102;50.906;6.972;2022-08-30T09:35:25;101282.91;;;23.35;44.83
54194;BME280;40102;50.906;6.972;2022-08-30T09:38:08;101289.47;;;23.42;44.76
54194;BME280;40102;50.906;6.972;2022-08-30T09:45:45;101274.72;;;23.53;43.76
54194;BME280;40102;50.906;6.972;2022-08-30T10:01:34;101256.91;;;23.58;42.20
54194;BME280;40102;50.906;6.972;2022-08-30T10:04:43;101269.06;;;23.64;41.99
54194;BME280;40102;50.906;6.972;2022-08-30T10:07:18;101256.19;;;23.56;42.10
54194;BME280;40102;50.906;6.972;2022-08-30T10:09:53;101268.53;;;23.61;41.87
54194;BME280;40102;50.906;6.972;2022-08-30T10:12:35;101266.50;;;23.63;42.16
54194;BME280;40102;50.906;6.972;2022-08-30T10:15:18;101267.75;;;23.68;41.95
54194;BME280;40102;50.906;6.972;2022-08-30T10:20:32;101250.81;;;23.65;41.74
54194;BME280;40102;50.906;6.972;2022-08-30T10:23:06;101268.66;;;23.77;41.81
54194;BME280;40102;50.906;6.972;2022-08-30T10:25:49;101262.03;;;23.79;41.88
54194;BME280;40102;50.906;6.972;2022-08-30T10:28:43;101257.44;;;23.80;41.52
54194;BME280;40102;50.906;6.972;2022-08-30T10:31:16;101252.34;;;23.85;41.19
54194;BME280;40102;50.906;6.972;2022-08-30T10:33:46;101239.88;;;23.82;41.43
54194;BME280;40102;50.906;6.972;2022-08-30T10:36:25;101256.00;;;23.94;41.09
54194;BME280;40102;50.906;6.972;2022-08-30T10:38:53;101251.06;;;23.97;41.13
54194;BME280;40102;50.906;6.972;2022-08-30T10:44:10;101245.03;;;24.11;41.12
54194;BME280;40102;50.906;6.972;2022-08-30T10:49:36;101240.78;;;24.17;40.40
54194;BME280;40102;50.906;6.972;2022-08-30T10:56:55;101241.56;;;24.27;40.80
54194;BME280;40102;50.906;6.972;2022-08-30T10:59:21;101234.53;;;24.25;40.97
54194;BME280;40102;50.906;6.972;2022-08-30T11:02:21;101248.47;;;24.39;39.77
54194;BME280;40102;50.906;6.972;2022-08-30T11:07:43;101246.50;;;24.49;39.19
54194;BME280;40102;50.906;6.972;2022-08-30T11:15:33;101235.09;;;24.62;39.04
54194;BME280;40102;50.906;6.972;2022-08-30T11:18:01;101238.88;;;24.69;38.70
54194;BME280;40102;50.906;6.972;2022-08-30T11:20:31;101235.81;;;24.72;38.64
54194;BME280;40102;50.906;6.972;2022-08-30T11:26:05;101238.78;;;24.87;38.79
54194;BME280;40102;50.906;6.972;2022-08-30T11:31:09;101244.72;;;25.16;38.44
54194;BME280;40102;50.906;6.972;2022-08-30T11:33:52;101233.97;;;25.31;37.73
54194;BME280;40102;50.906;6.972;2022-08-30T11:41:40;101216.72;;;25.47;37.44
54194;BME280;40102;50.906;6.972;2022-08-30T11:46:46;101224.28;;;25.77;36.89
54194;BME280;40102;50.906;6.972;2022-08-30T11:57:40;101202.06;;;26.28;35.68
54194;BME280;40102;50.906;6.972;2022-08-30T12:00:11;101205.47;;;26.46;35.19
54194;BME280;40102;50.906;6.972;2022-08-30T12:03:05;101185.53;;;26.60;34.63
54194;BME280;40102;50.906;6.972;2022-08-30T12:08:01;101197.72;;;26.89;33.71
54194;BME280;40102;50.906;6.972;2022-08-30T12:10:40;101194.97;;;26.89;33.70
54194;BME280;40102;50.906;6.972;2022-08-30T12:13:07;101193.94;;;26.90;33.76
54194;BME280;40102;50.906;6.972;2022-08-30T12:19:10;101192.78;;;27.15;33.89
54194;BME280;40102;50.906;6.972;2022-08-30T12:24:05;101197.81;;;27.34;33.01
54194;BME280;40102;50.906;6.972;2022-08-30T12:26:37;101186.44;;;27.37;32.97
54194;BME280;40102;50.906;6.972;2022-08-30T12:31:44;101171.44;;;27.48;33.32
54194;BME280;40102;50.906;6.972;2022-08-30T12:34:19;101175.13;;;27.78;33.13
54194;BME280;40102;50.906;6.972;2022-08-30T12:37:00;101178.50;;;28.03;33.33
54194;BME280;40102;50.906;6.972;2022-08-30T12:39:30;101165.22;;;28.21;33.56
54194;BME280;40102;50.906;6.972;2022-08-30T12:42:16;101164.09;;;28.45;32.57
54194;BME280;40102;50.906;6.972;2022-08-30T12:44:42;101156.53;;;28.47;32.58
54194;BME280;40102;50.906;6.972;2022-08-30T12:47:10;101161.44;;;28.52;32.09
54194;BME280;40102;50.906;6.972;2022-08-30T12:49:38;101169.13;;;28.56;32.37
54194;BME280;40102;50.906;6.972;2022-08-30T12:52:21;101161.91;;;28.55;32.05
54194;BME280;40102;50.906;6.972;2022-08-30T12:54:49;101156.88;;;28.59;32.96
54194;BME280;40102;50.906;6.972;2022-08-30T12:59:59;101149.31;;;29.18;32.41
54194;BME280;40102;50.906;6.972;2022-08-30T13:02:27;101153.13;;;29.39;31.81
54194;BME280;40102;50.906;6.972;2022-08-30T13:10:51;101141.84;;;30.04;30.63
54194;BME280;40102;50.906;6.972;2022-08-30T13:13:50;101140.66;;;30.20;30.76
54194;BME280;40102;50.906;6.972;2022-08-30T13:18:49;101148.94;;;30.61;29.38
54194;BME280;40102;50.906;6.972;2022-08-30T13:21:31;101147.28;;;30.73;29.03
54194;BME280;40102;50.906;6.972;2022-08-30T13:23:59;101136.03;;;30.75;29.20
54194;BME280;40102;50.906;6.972;2022-08-30T13:26:25;101137.97;;;30.81;28.89
54194;BME280;40102;50.906;6.972;2022-08-30T13:28:53;101132.50;;;30.94;28.78
54194;BME280;40102;50.906;6.972;2022-08-30T13:31:19;101126.16;;;31.13;28.85
54194;BME280;40102;50.906;6.972;2022-08-30T13:33:45;101123.63;;;31.38;28.52
54194;BME280;40102;50.906;6.972;2022-08-30T13:36:12;101114.28;;;31.46;27.98
54194;BME280;40102;50.906;6.972;2022-08-30T13:38:38;101135.53;;;31.58;28.78
54194;BME280;40102;50.906;6.972;2022-08-30T13:41:04;101130.00;;;31.45;28.85
54194;BME280;40102;50.906;6.972;2022-08-30T13:43:30;101121.72;;;31.45;28.33
54194;BME280;40102;50.906;6.972;2022-08-30T13:45:55;101116.59;;;31.49;29.00
54194;BME280;40102;50.906;6.972;2022-08-30T13:48:22;101110.66;;;31.72;29.02
54194;BME280;40102;50.906;6.972;2022-08-30T13:50:47;101111.03;;;32.02;28.57
54194;BME280;40102;50.906;6.972;2022-08-30T13:53:13;101116.72;;;32.33;28.21
54194;BME280;40102;50.906;6.972;2022-08-30T13:55:40;101115.97;;;32.58;27.27
54194;BME280;40102;50.906;6.972;2022-08-30T13:58:06;101105.03;;;32.76;27.70
54194;BME280;40102;50.906;6.972;2022-08-30T14:00:32;101106.63;;;32.97;27.39
54194;BME280;40102;50.906;6.972;2022-08-30T14:02:58;101112.47;;;33.13;27.33
54194;BME280;40102;50.906;6.972;2022-08-30T14:05:29;101101.41;;;33.13;27.04
54194;BME280;40102;50.906;6.972;2022-08-30T14:07:56;101108.38;;;33.23;27.37
54194;BME280;40102;50.906;6.972;2022-08-30T14:10:24;101101.72;;;33.30;26.96
54194;BME280;40102;50.906;6.972;2022-08-30T14:12:50;101094.22;;;33.37;26.84
54194;BME280;40102;50.906;6.972;2022-08-30T14:15:16;101099.75;;;33.37;27.06
54194;BME280;40102;50.906;6.972;2022-08-30T14:17:41;101100.59;;;33.38;27.42
54194;BME280;40102;50.906;6.972;2022-08-30T14:20:07;101092.94;;;33.58;26.94
54194;BME280;40102;50.906;6.972;2022-08-30T14:22:32;101092.75;;;33.78;26.72
54194;BME280;40102;50.906;6.972;2022-08-30T14:24:58;101087.03;;;33.98;26.44
54194;BME280;40102;50.906;6.972;2022-08-30T14:27:26;101082.56;;;34.15;26.46
54194;BME280;40102;50.906;6.972;2022-08-30T14:29:51;101090.22;;;34.38;25.81
54194;BME280;40102;50.906;6.972;2022-08-30T14:32:17;101090.69;;;34.35;25.81
54194;BME280;40102;50.906;6.972;2022-08-30T14:34:42;101083.25;;;34.29;25.92